sensor_id;sensor_type;location;lat;lon;timestamp;temperature;humidity
4908;DHT22;64375;51.540;7.364;2023-11-19T00:02:26;15.00;99.90
4908;DHT22;64375;51.540;7.364;2023-11-19T00:05:02;15.10;99.90
4908;DHT22;64375;51.540;7.364;2023-11-19T00:07:30;15.10;99.90
4908;DHT22;64375;51.540;7.364;2023-11-19T00:10:01;15.10;99.90
4908;DHT22;64375;51.540;7.364;2023-11-19T00:12:45;15.20;99.90
4908;DHT22;64375;51.540;7.364;2023-11-19T00:15:18;15.10;99.90
4908;DHT22;64375;51.540;7.364;2023-11-19T00:17:47;15.10;99.90
4908;DHT22;64375;51.540;7.364;2023-11-19T00:20:20;15.20;99.90
4908;DHT22;64375;51.540;7.364;2023-11-19T00:22:51;15.30;99.90
4908;DHT22;64375;51.540;7.364;2023-11-19T00:25:23;15.40;99.90
4908;DHT22;64375;51.540;7.364;2023-11-19T00:27:54;15.30;99.90
4908;DHT22;64375;51.540;7.364;2023-11-19T00:30:24;15.20;99.90
4908;DHT22;64375;51.540;7.364;2023-11-19T00:32:52;15.20;99.90
4908;DHT22;64375;51.540;7.364;2023-11-19T00:35:22;15.40;99.90
4908;DHT22;64375;51.540;7.364;2023-11-19T00:37:50;15.50;99.90
4908;DHT22;64375;51.540;7.364;2023-11-19T00:40:23;15.60;99.90
4908;DHT22;64375;51.540;7.364;2023-11-19T00:43:03;15.60;99.90
4908;DHT22;64375;51.540;7.364;2023-11-19T00:45:32;15.60;99.90
4908;DHT22;64375;51.540;7.364;2023-11-19T00:48:04;15.70;99.90
4908;DHT22;64375;51.540;7.364;2023-11-19T00:50:35;15.70;99.90
4908;DHT22;64375;51.540;7.364;2023-11-19T00:53:13;15.60;99.90
4908;DHT22;64375;51.540;7.364;2023-11-19T00:55:44;15.60;99.90
4908;DHT22;64375;51.540;7.364;2023-11-19T00:58:16;15.60;99.90
4908;DHT22;64375;51.540;7.364;2023-11-19T01:00:48;15.70;99.90
4908;DHT22;64375;51.540;7.364;2023-11-19T01:03:16;15.70;99.90
4908;DHT22;64375;51.540;7.364;2023-11-19T01:05:50;15.70;99.90
4908;DHT22;64375;51.540;7.364;2023-11-19T01:08:20;15.70;99.90
4908;DHT22;64375;51.540;7.364;2023-11-19T01:10:48;15.70;99.90
4908;DHT22;64375;51.540;7.364;2023-11-19T01:13:16;15.60;99.90
4908;DHT22;64375;51.540;7.364;2023-11-19T01:15:48;15.60;99.90
4908;DHT22;64375;51.540;7.364;2023-11-19T01:18:19;15.70;99.90
4908;DHT22;64375;51.540;7.364;2023-11-19T01:20:50;15.60;99.90
4908;DHT22;64375;51.540;7.364;2023-11-19T01:23:37;15.60;99.90
4908;DHT22;64375;51.540;7.364;2023-11-19T01:26:09;15.60;99.90
4908;DHT22;64375;51.540;7.364;2023-11-19T01:28:45;15.60;99.90
4908;DHT22;64375;51.540;7.364;2023-11-19T01:31:17;15.50;99.90
4908;DHT22;64375;51.540;7.364;2023-11-19T01:33:46;15.50;99.90
4908;DHT22;64375;51.540;7.364;2023-11-19T01:36:14;15.50;99.90
4908;DHT22;64375;51.540;7.364;2023-11-19T01:38:42;15.50;99.90
4908;DHT22;64375;51.540;7.364;2023-11-19T01:41:11;15.50;99.90
4908;DHT22;64375;51.540;7.364;2023-11-19T01:43:39;15.50;99.90
4908;DHT22;64375;51.540;7.364;2023-11-19T01:46:08;15.60;99.90
4908;DHT22;64375;51.540;7.364;2023-11-19T01:48:44;15.70;99.90
4908;DHT22;64375;51.540;7.364;2023-11-19T01:51:13;15.60;99.90
4908;DHT22;64375;51.540;7.364;2023-11-19T01:53:46;15.50;99.90
4908;DHT22;64375;51.540;7.364;2023-11-19T01:56:15;15.50;99.90
4908;DHT22;64375;51.540;7.364;2023-11-19T01:58:47;15.50;99.90
4908;DHT22;64375;51.540;7.364;2023-11-19T02:01:16;15.50;99.90
4908;DHT22;64375;51.540;7.364;2023-11-19T02:03:52;15.70;99.90
4908;DHT22;64375;51.540;7.364;2023-11-19T02:06:20;15.70;99.90
4908;DHT22;64375;51.540;7.364;2023-11-19T02:08:57;15.70;99.90
4908;DHT22;64375;51.540;7.364;2023-11-19T02:11:25;15.70;99.90
4908;DHT22;64375;51.540;7.364;2023-11-19T02:14:11;15.70;99.90
4908;DHT22;64375;51.540;7.364;2023-11-19T02:16:40;15.80;99.90
4908;DHT22;64375;51.540;7.364;2023-11-19T02:19:15;15.80;99.90
4908;DHT22;64375;51.540;7.364;2023-11-19T02:21:43;15.70;99.90
4908;DHT22;64375;51.540;7.364;2023-11-19T02:24:21;15.70;99.90
4908;DHT22;64375;51.540;7.364;2023-11-19T02:26:54;15.70;99.90
4908;DHT22;64375;51.540;7.364;2023-11-19T02:29:26;15.70;99.90
4908;DHT22;64375;51.540;7.364;2023-11-19T02:31:54;15.70;99.90
4908;DHT22;64375;51.540;7.364;2023-11-19T02:34:23;15.70;99.90
4908;DHT22;64375;51.540;7.364;2023-11-19T02:36:51;15.70;99.90
4908;DHT22;64375;51.540;7.364;2023-11-19T02:39:22;15.70;99.90
4908;DHT22;64375;51.540;7.364;2023-11-19T02:41:50;15.60;99.90
4908;DHT22;64375;51.540;7.364;2023-11-19T02:44:22;15.60;99.90
4908;DHT22;64375;51.540;7.364;2023-11-19T02:46:52;15.50;99.90
4908;DHT22;64375;51.540;7.364;2023-11-19T02:49:25;15.70;99.90
4908;DHT22;64375;51.540;7.364;2023-11-19T02:51:56;15.70;99.90
4908;DHT22;64375;51.540;7.364;2023-11-19T02:54:26;15.70;99.90
4908;DHT22;64375;51.540;7.364;2023-11-19T02:56:54;15.60;99.90
4908;DHT22;64375;51.540;7.364;2023-11-19T02:59:26;15.60;99.90
4908;DHT22;64375;51.540;7.364;2023-11-19T03:02:00;15.50;99.90
4908;DHT22;64375;51.540;7.364;2023-11-19T03:04:31;15.60;99.90
4908;DHT22;64375;51.540;7.364;2023-11-19T03:07:05;15.60;99.90
4908;DHT22;64375;51.540;7.364;2023-11-19T03:09:47;15.70;99.90
4908;DHT22;64375;51.540;7.364;2023-11-19T03:12:21;15.60;99.90
4908;DHT22;64375;51.540;7.364;2023-11-19T03:14:49;15.70;99.90
4908;DHT22;64375;51.540;7.364;2023-11-19T03:17:18;15.60;99.90
4908;DHT22;64375;51.540;7.364;2023-11-19T03:19:46;15.60;99.90
4908;DHT22;64375;51.540;7.364;2023-11-19T03:22:22;15.60;99.90
4908;DHT22;64375;51.540;7.364;2023-11-19T03:25:02;15.60;99.90
4908;DHT22;64375;51.540;7.364;2023-11-19T03:27:34;15.60;99.90
4908;DHT22;64375;51.540;7.364;2023-11-19T03:30:02;15.50;99.90
4908;DHT22;64375;51.540;7.364;2023-11-19T03:32:33;15.70;99.90
4908;DHT22;64375;51.540;7.364;2023-11-19T03:35:02;15.70;99.90
4908;DHT22;64375;51.540;7.364;2023-11-19T03:37:31;15.80;99.90
4908;DHT22;64375;51.540;7.364;2023-11-19T03:40:12;15.80;99.90
4908;DHT22;64375;51.540;7.364;2023-11-19T03:42:40;15.80;99.90
4908;DHT22;64375;51.540;7.364;2023-11-19T03:45:08;15.80;99.90
4908;DHT22;64375;51.540;7.364;2023-11-19T03:47:38;15.70;99.90
4908;DHT22;64375;51.540;7.364;2023-11-19T03:50:06;15.70;99.90
4908;DHT22;64375;51.540;7.364;2023-11-19T03:52:38;15.70;99.90
4908;DHT22;64375;51.540;7.364;2023-11-19T03:55:15;15.70;99.90
4908;DHT22;64375;51.540;7.364;2023-11-19T03:57:46;15.70;99.90
4908;DHT22;64375;51.540;7.364;2023-11-19T04:00:21;15.60;99.90
4908;DHT22;64375;51.540;7.364;2023-11-19T04:02:51;15.60;99.90
4908;DHT22;64375;51.540;7.364;2023-11-19T04:05:19;15.60;99.90
4908;DHT22;64375;51.540;7.364;2023-11-19T04:07:49;15.50;99.90
4908;DHT22;64375;51.540;7.364;2023-11-19T04:10:17;15.50;99.90
4908;DHT22;64375;51.540;7.364;2023-11-19T04:12:48;15.50;99.90
4908;DHT22;64375;51.540;7.364;2023-11-19T04:15:25;15.50;99.90
4908;DHT22;64375;51.540;7.364;2023-11-19T04:17:57;15.50;99.90
4908;DHT22;64375;51.540;7.364;2023-11-19T04:20:28;15.40;99.90
4908;DHT22;64375;51.540;7.364;2023-11-19T04:23:05;15.40;99.90
4908;DHT22;64375;51.540;7.364;2023-11-19T04:25:35;15.40;99.90
4908;DHT22;64375;51.540;7.364;2023-11-19T04:28:06;15.40;99.90
4908;DHT22;64375;51.540;7.364;2023-11-19T04:30:35;15.50;99.90
4908;DHT22;64375;51.540;7.364;2023-11-19T04:33:20;15.40;99.90
4908;DHT22;64375;51.540;7.364;2023-11-19T04:35:51;15.40;99.90
4908;DHT22;64375;51.540;7.364;2023-11-19T04:38:19;15.40;99.90
4908;DHT22;64375;51.540;7.364;2023-11-19T04:40:53;15.40;99.90
4908;DHT22;64375;51.540;7.364;2023-11-19T04:43:27;15.40;99.90
4908;DHT22;64375;51.540;7.364;2023-11-19T04:46:04;15.40;99.90
4908;DHT22;64375;51.540;7.364;2023-11-19T04:48:42;15.40;99.90
4908;DHT22;64375;51.540;7.364;2023-11-19T04:51:13;15.40;99.90
4908;DHT22;64375;51.540;7.364;2023-11-19T04:53:41;15.50;99.90
4908;DHT22;64375;51.540;7.364;2023-11-19T04:56:12;15.50;99.90
4908;DHT22;64375;51.540;7.364;2023-11-19T04:58:44;15.70;99.90
4908;DHT22;64375;51.540;7.364;2023-11-19T05:01:15;15.70;99.90
4908;DHT22;64375;51.540;7.364;2023-11-19T05:03:45;15.60;99.90
4908;DHT22;64375;51.540;7.364;2023-11-19T05:06:13;15.50;99.90
4908;DHT22;64375;51.540;7.364;2023-11-19T05:08:42;15.50;99.90
4908;DHT22;64375;51.540;7.364;2023-11-19T05:11:12;15.60;99.90
4908;DHT22;64375;51.540;7.364;2023-11-19T05:13:52;15.60;99.90
4908;DHT22;64375;51.540;7.364;2023-11-19T05:16:35;15.60;99.90
4908;DHT22;64375;51.540;7.364;2023-11-19T05:19:16;15.50;99.90
4908;DHT22;64375;51.540;7.364;2023-11-19T05:21:45;15.40;99.90
4908;DHT22;64375;51.540;7.364;2023-11-19T05:24:22;15.50;99.90
4908;DHT22;64375;51.540;7.364;2023-11-19T05:26:53;15.60;99.90
4908;DHT22;64375;51.540;7.364;2023-11-19T05:29:27;15.70;99.90
4908;DHT22;64375;51.540;7.364;2023-11-19T05:32:01;15.90;99.90
4908;DHT22;64375;51.540;7.364;2023-11-19T05:34:40;15.90;99.90
4908;DHT22;64375;51.540;7.364;2023-11-19T05:37:17;16.00;99.90
4908;DHT22;64375;51.540;7.364;2023-11-19T05:39:45;15.90;99.90
4908;DHT22;64375;51.540;7.364;2023-11-19T05:42:13;16.00;99.90
4908;DHT22;64375;51.540;7.364;2023-11-19T05:44:44;16.10;99.90
4908;DHT22;64375;51.540;7.364;2023-11-19T05:47:12;16.10;99.90
4908;DHT22;64375;51.540;7.364;2023-11-19T05:49:58;16.10;99.90
4908;DHT22;64375;51.540;7.364;2023-11-19T05:52:35;16.20;99.90
4908;DHT22;64375;51.540;7.364;2023-11-19T05:55:13;16.10;99.90
4908;DHT22;64375;51.540;7.364;2023-11-19T05:57:46;16.10;99.90
4908;DHT22;64375;51.540;7.364;2023-11-19T06:00:19;16.00;99.90
4908;DHT22;64375;51.540;7.364;2023-11-19T06:02:47;16.10;99.90
4908;DHT22;64375;51.540;7.364;2023-11-19T06:05:20;16.00;99.90
4908;DHT22;64375;51.540;7.364;2023-11-19T06:07:48;16.00;99.90
4908;DHT22;64375;51.540;7.364;2023-11-19T06:10:16;16.00;99.90
4908;DHT22;64375;51.540;7.364;2023-11-19T06:12:45;15.90;99.90
4908;DHT22;64375;51.540;7.364;2023-11-19T06:15:14;15.80;99.90
4908;DHT22;64375;51.540;7.364;2023-11-19T06:17:44;15.90;99.90
4908;DHT22;64375;51.540;7.364;2023-11-19T06:20:13;15.80;99.90
4908;DHT22;64375;51.540;7.364;2023-11-19T06:22:50;15.70;99.90
4908;DHT22;64375;51.540;7.364;2023-11-19T06:25:27;15.70;99.90
4908;DHT22;64375;51.540;7.364;2023-11-19T06:27:58;15.70;99.90
4908;DHT22;64375;51.540;7.364;2023-11-19T06:30:26;15.70;99.90
4908;DHT22;64375;51.540;7.364;2023-11-19T06:32:55;15.80;99.90
4908;DHT22;64375;51.540;7.364;2023-11-19T06:35:26;15.80;99.90
4908;DHT22;64375;51.540;7.364;2023-11-19T06:37:57;15.70;99.90
4908;DHT22;64375;51.540;7.364;2023-11-19T06:40:26;15.60;99.90
4908;DHT22;64375;51.540;7.364;2023-11-19T06:43:02;15.60;99.90
4908;DHT22;64375;51.540;7.364;2023-11-19T06:45:30;15.50;99.90
4908;DHT22;64375;51.540;7.364;2023-11-19T06:48:00;15.60;99.90
4908;DHT22;64375;51.540;7.364;2023-11-19T06:50:32;15.70;99.90
4908;DHT22;64375;51.540;7.364;2023-11-19T06:53:08;15.80;99.90
4908;DHT22;64375;51.540;7.364;2023-11-19T06:55:37;15.70;99.90
4908;DHT22;64375;51.540;7.364;2023-11-19T06:58:05;15.60;99.90
4908;DHT22;64375;51.540;7.364;2023-11-19T07:00:33;15.80;99.90
4908;DHT22;64375;51.540;7.364;2023-11-19T07:03:05;16.00;99.90
4908;DHT22;64375;51.540;7.364;2023-11-19T07:05:38;15.90;99.90
4908;DHT22;64375;51.540;7.364;2023-11-19T07:08:07;15.90;99.90
4908;DHT22;64375;51.540;7.364;2023-11-19T07:10:35;15.90;99.90
4908;DHT22;64375;51.540;7.364;2023-11-19T07:13:09;16.10;99.90
4908;DHT22;64375;51.540;7.364;2023-11-19T07:15:43;16.10;99.90
4908;DHT22;64375;51.540;7.364;2023-11-19T07:18:11;16.20;99.90
4908;DHT22;64375;51.540;7.364;2023-11-19T07:20:39;16.20;99.90
4908;DHT22;64375;51.540;7.364;2023-11-19T07:23:18;16.30;99.90
4908;DHT22;64375;51.540;7.364;2023-11-19T07:25:46;16.10;99.90
4908;DHT22;64375;51.540;7.364;2023-11-19T07:28:17;16.20;99.90
4908;DHT22;64375;51.540;7.364;2023-11-19T07:30:47;16.10;99.90
4908;DHT22;64375;51.540;7.364;2023-11-19T07:33:15;16.00;99.90
4908;DHT22;64375;51.540;7.364;2023-11-19T07:35:43;15.80;99.90
4908;DHT22;64375;51.540;7.364;2023-11-19T07:38:17;15.80;99.90
4908;DHT22;64375;51.540;7.364;2023-11-19T07:40:45;15.80;99.90
4908;DHT22;64375;51.540;7.364;2023-11-19T07:43:19;15.90;99.90
4908;DHT22;64375;51.540;7.364;2023-11-19T07:45:47;16.10;99.90
4908;DHT22;64375;51.540;7.364;2023-11-19T07:48:15;16.10;99.90
4908;DHT22;64375;51.540;7.364;2023-11-19T07:50:44;16.30;99.90
4908;DHT22;64375;51.540;7.364;2023-11-19T07:53:20;16.30;99.90
4908;DHT22;64375;51.540;7.364;2023-11-19T07:55:50;16.40;99.90
4908;DHT22;64375;51.540;7.364;2023-11-19T07:58:18;16.50;99.90
4908;DHT22;64375;51.540;7.364;2023-11-19T08:00:46;16.40;99.90
4908;DHT22;64375;51.540;7.364;2023-11-19T08:03:14;16.40;99.90
4908;DHT22;64375;51.540;7.364;2023-11-19T08:05:45;16.30;99.90
4908;DHT22;64375;51.540;7.364;2023-11-19T08:08:13;16.40;99.90
4908;DHT22;64375;51.540;7.364;2023-11-19T08:10:43;16.60;99.90
4908;DHT22;64375;51.540;7.364;2023-11-19T08:13:14;16.60;99.90
4908;DHT22;64375;51.540;7.364;2023-11-19T08:15:50;16.60;99.90
4908;DHT22;64375;51.540;7.364;2023-11-19T08:18:18;16.60;99.90
4908;DHT22;64375;51.540;7.364;2023-11-19T08:20:46;16.60;99.90
4908;DHT22;64375;51.540;7.364;2023-11-19T08:23:30;16.50;99.90
4908;DHT22;64375;51.540;7.364;2023-11-19T08:26:00;16.20;99.90
4908;DHT22;64375;51.540;7.364;2023-11-19T08:28:34;16.20;99.90
4908;DHT22;64375;51.540;7.364;2023-11-19T08:31:02;16.20;99.90
4908;DHT22;64375;51.540;7.364;2023-11-19T08:33:33;15.80;99.90
4908;DHT22;64375;51.540;7.364;2023-11-19T08:36:01;15.70;99.90
4908;DHT22;64375;51.540;7.364;2023-11-19T08:38:30;15.70;99.90
4908;DHT22;64375;51.540;7.364;2023-11-19T08:41:00;15.80;99.90
4908;DHT22;64375;51.540;7.364;2023-11-19T08:43:33;15.90;99.90
4908;DHT22;64375;51.540;7.364;2023-11-19T08:46:01;15.90;99.90
4908;DHT22;64375;51.540;7.364;2023-11-19T08:48:34;16.00;99.90
4908;DHT22;64375;51.540;7.364;2023-11-19T08:51:02;16.10;99.90
4908;DHT22;64375;51.540;7.364;2023-11-19T08:53:31;16.20;99.90
4908;DHT22;64375;51.540;7.364;2023-11-19T08:56:00;16.30;99.90
4908;DHT22;64375;51.540;7.364;2023-11-19T08:58:30;16.30;99.90
4908;DHT22;64375;51.540;7.364;2023-11-19T09:00:58;16.30;99.90
4908;DHT22;64375;51.540;7.364;2023-11-19T09:03:26;16.20;99.90
4908;DHT22;64375;51.540;7.364;2023-11-19T09:05:56;16.20;99.90
4908;DHT22;64375;51.540;7.364;2023-11-19T09:08:24;16.20;99.90
4908;DHT22;64375;51.540;7.364;2023-11-19T09:10:55;16.20;99.90
4908;DHT22;64375;51.540;7.364;2023-11-19T09:13:24;16.10;99.90
4908;DHT22;64375;51.540;7.364;2023-11-19T09:15:55;16.10;99.90
4908;DHT22;64375;51.540;7.364;2023-11-19T09:18:28;16.20;99.90
4908;DHT22;64375;51.540;7.364;2023-11-19T09:21:04;16.20;99.90
4908;DHT22;64375;51.540;7.364;2023-11-19T09:23:37;16.40;99.90
4908;DHT22;64375;51.540;7.364;2023-11-19T09:26:06;16.40;99.90
4908;DHT22;64375;51.540;7.364;2023-11-19T09:28:40;16.30;99.90
4908;DHT22;64375;51.540;7.364;2023-11-19T09:31:14;16.50;99.90
4908;DHT22;64375;51.540;7.364;2023-11-19T09:33:42;16.50;99.90
4908;DHT22;64375;51.540;7.364;2023-11-19T09:36:12;16.60;99.90
4908;DHT22;64375;51.540;7.364;2023-11-19T09:38:43;16.60;99.90
4908;DHT22;64375;51.540;7.364;2023-11-19T09:41:11;16.60;99.90
4908;DHT22;64375;51.540;7.364;2023-11-19T09:43:42;16.60;99.90
4908;DHT22;64375;51.540;7.364;2023-11-19T09:46:10;16.60;99.90
4908;DHT22;64375;51.540;7.364;2023-11-19T09:48:46;16.60;99.90
4908;DHT22;64375;51.540;7.364;2023-11-19T09:51:19;16.70;99.90
4908;DHT22;64375;51.540;7.364;2023-11-19T09:53:47;16.70;99.90
4908;DHT22;64375;51.540;7.364;2023-11-19T09:56:16;16.60;99.90
4908;DHT22;64375;51.540;7.364;2023-11-19T09:58:45;16.40;99.90
4908;DHT22;64375;51.540;7.364;2023-11-19T10:01:14;16.40;99.90
4908;DHT22;64375;51.540;7.364;2023-11-19T10:03:49;16.30;99.90
4908;DHT22;64375;51.540;7.364;2023-11-19T10:06:23;16.50;99.90
4908;DHT22;64375;51.540;7.364;2023-11-19T10:08:55;16.60;99.90
4908;DHT22;64375;51.540;7.364;2023-11-19T10:11:26;16.60;99.90
4908;DHT22;64375;51.540;7.364;2023-11-19T10:13:56;16.60;99.90
4908;DHT22;64375;51.540;7.364;2023-11-19T10:16:30;16.60;99.90
4908;DHT22;64375;51.540;7.364;2023-11-19T10:19:08;16.80;99.90
4908;DHT22;64375;51.540;7.364;2023-11-19T10:21:40;16.90;99.90
4908;DHT22;64375;51.540;7.364;2023-11-19T10:24:08;16.80;99.90
4908;DHT22;64375;51.540;7.364;2023-11-19T10:26:40;16.90;99.90
4908;DHT22;64375;51.540;7.364;2023-11-19T10:29:12;16.90;99.90
4908;DHT22;64375;51.540;7.364;2023-11-19T10:31:41;16.80;99.90
4908;DHT22;64375;51.540;7.364;2023-11-19T10:34:25;16.80;99.90
4908;DHT22;64375;51.540;7.364;2023-11-19T10:36:53;16.80;99.90
4908;DHT22;64375;51.540;7.364;2023-11-19T10:39:21;16.90;99.90
4908;DHT22;64375;51.540;7.364;2023-11-19T10:41:51;16.80;99.90
4908;DHT22;64375;51.540;7.364;2023-11-19T10:44:32;16.80;99.90
4908;DHT22;64375;51.540;7.364;2023-11-19T10:47:05;16.70;99.90
4908;DHT22;64375;51.540;7.364;2023-11-19T10:49:49;16.70;99.90
4908;DHT22;64375;51.540;7.364;2023-11-19T10:52:18;16.60;99.90
4908;DHT22;64375;51.540;7.364;2023-11-19T10:54:50;16.60;99.90
4908;DHT22;64375;51.540;7.364;2023-11-19T10:57:20;16.70;99.90
4908;DHT22;64375;51.540;7.364;2023-11-19T10:59:55;16.80;99.90
4908;DHT22;64375;51.540;7.364;2023-11-19T11:02:30;16.90;99.90
4908;DHT22;64375;51.540;7.364;2023-11-19T11:05:05;16.90;99.90
4908;DHT22;64375;51.540;7.364;2023-11-19T11:07:34;16.90;99.90
4908;DHT22;64375;51.540;7.364;2023-11-19T11:10:08;16.90;99.90
4908;DHT22;64375;51.540;7.364;2023-11-19T11:12:40;16.90;99.90
4908;DHT22;64375;51.540;7.364;2023-11-19T11:15:26;17.10;99.90
4908;DHT22;64375;51.540;7.364;2023-11-19T11:17:59;17.10;99.90
4908;DHT22;64375;51.540;7.364;2023-11-19T11:20:29;17.10;99.90
4908;DHT22;64375;51.540;7.364;2023-11-19T11:26:04;17.10;99.90
4908;DHT22;64375;51.540;7.364;2023-11-19T11:28:46;17.10;99.90
4908;DHT22;64375;51.540;7.364;2023-11-19T11:31:26;17.20;99.90
4908;DHT22;64375;51.540;7.364;2023-11-19T11:34:20;17.20;99.90
4908;DHT22;64375;51.540;7.364;2023-11-19T11:36:58;17.40;99.90
4908;DHT22;64375;51.540;7.364;2023-11-19T11:39:32;17.40;99.90
4908;DHT22;64375;51.540;7.364;2023-11-19T11:45:10;17.60;99.90
4908;DHT22;64375;51.540;7.364;2023-11-19T11:48:13;17.60;99.90
4908;DHT22;64375;51.540;7.364;2023-11-19T11:50:54;17.60;99.90
4908;DHT22;64375;51.540;7.364;2023-11-19T11:53:23;17.60;99.90
4908;DHT22;64375;51.540;7.364;2023-11-19T11:55:58;17.60;99.90
4908;DHT22;64375;51.540;7.364;2023-11-19T11:58:35;17.60;99.90
4908;DHT22;64375;51.540;7.364;2023-11-19T12:01:07;17.50;99.90
4908;DHT22;64375;51.540;7.364;2023-11-19T12:03:37;17.50;99.90
4908;DHT22;64375;51.540;7.364;2023-11-19T12:06:09;17.40;99.90
4908;DHT22;64375;51.540;7.364;2023-11-19T12:08:39;17.50;99.90
4908;DHT22;64375;51.540;7.364;2023-11-19T12:11:10;17.50;99.90
4908;DHT22;64375;51.540;7.364;2023-11-19T12:13:53;17.50;99.90
4908;DHT22;64375;51.540;7.364;2023-11-19T12:16:28;17.50;99.90
4908;DHT22;64375;51.540;7.364;2023-11-19T12:19:07;17.50;99.90
4908;DHT22;64375;51.540;7.364;2023-11-19T12:21:38;17.60;99.90
4908;DHT22;64375;51.540;7.364;2023-11-19T12:24:07;17.60;99.90
4908;DHT22;64375;51.540;7.364;2023-11-19T12:26:36;17.50;99.90
4908;DHT22;64375;51.540;7.364;2023-11-19T12:29:07;17.50;99.90
4908;DHT22;64375;51.540;7.364;2023-11-19T12:31:36;17.50;99.90
4908;DHT22;64375;51.540;7.364;2023-11-19T12:34:13;17.40;99.90
4908;DHT22;64375;51.540;7.364;2023-11-19T12:36:41;17.00;99.90
4908;DHT22;64375;51.540;7.364;2023-11-19T12:39:13;16.80;99.90
4908;DHT22;64375;51.540;7.364;2023-11-19T12:41:53;16.70;99.90
4908;DHT22;64375;51.540;7.364;2023-11-19T12:44:28;16.50;99.90
4908;DHT22;64375;51.540;7.364;2023-11-19T12:47:04;16.30;99.90
4908;DHT22;64375;51.540;7.364;2023-11-19T12:49:37;16.30;99.90
4908;DHT22;64375;51.540;7.364;2023-11-19T12:52:13;16.20;99.90
4908;DHT22;64375;51.540;7.364;2023-11-19T12:54:41;16.10;99.90
4908;DHT22;64375;51.540;7.364;2023-11-19T12:57:15;16.20;99.90
4908;DHT22;64375;51.540;7.364;2023-11-19T12:59:54;16.50;99.90
4908;DHT22;64375;51.540;7.364;2023-11-19T13:02:23;16.60;99.90
4908;DHT22;64375;51.540;7.364;2023-11-19T13:05:23;16.70;99.90
4908;DHT22;64375;51.540;7.364;2023-11-19T13:08:02;16.90;99.90
4908;DHT22;64375;51.540;7.364;2023-11-19T13:10:32;17.00;99.90
4908;DHT22;64375;51.540;7.364;2023-11-19T13:13:06;17.10;99.90
4908;DHT22;64375;51.540;7.364;2023-11-19T13:15:35;17.10;99.90
4908;DHT22;64375;51.540;7.364;2023-11-19T13:18:03;17.20;99.90
4908;DHT22;64375;51.540;7.364;2023-11-19T13:20:37;17.20;99.90
4908;DHT22;64375;51.540;7.364;2023-11-19T13:23:11;17.30;99.90
4908;DHT22;64375;51.540;7.364;2023-11-19T13:25:58;17.40;99.90
4908;DHT22;64375;51.540;7.364;2023-11-19T13:28:29;17.40;99.90
4908;DHT22;64375;51.540;7.364;2023-11-19T13:31:00;17.20;99.90
4908;DHT22;64375;51.540;7.364;2023-11-19T13:33:31;17.10;99.90
4908;DHT22;64375;51.540;7.364;2023-11-19T13:36:04;17.20;99.90
4908;DHT22;64375;51.540;7.364;2023-11-19T13:38:34;17.20;99.90
4908;DHT22;64375;51.540;7.364;2023-11-19T13:41:06;17.30;99.90
4908;DHT22;64375;51.540;7.364;2023-11-19T13:43:39;17.40;99.90
4908;DHT22;64375;51.540;7.364;2023-11-19T13:46:07;17.40;99.90
4908;DHT22;64375;51.540;7.364;2023-11-19T13:48:38;17.30;99.90
4908;DHT22;64375;51.540;7.364;2023-11-19T13:51:12;17.30;99.90
4908;DHT22;64375;51.540;7.364;2023-11-19T13:53:40;17.30;99.90
4908;DHT22;64375;51.540;7.364;2023-11-19T13:56:11;17.20;99.90
4908;DHT22;64375;51.540;7.364;2023-11-19T13:58:45;17.00;99.90
4908;DHT22;64375;51.540;7.364;2023-11-19T14:01:13;17.10;99.90
4908;DHT22;64375;51.540;7.364;2023-11-19T14:03:41;17.10;99.90
4908;DHT22;64375;51.540;7.364;2023-11-19T14:06:11;17.00;99.90
4908;DHT22;64375;51.540;7.364;2023-11-19T14:08:44;17.20;99.90
4908;DHT22;64375;51.540;7.364;2023-11-19T14:11:12;17.20;99.90
4908;DHT22;64375;51.540;7.364;2023-11-19T14:13:40;17.30;99.90
4908;DHT22;64375;51.540;7.364;2023-11-19T14:16:08;17.20;99.90
4908;DHT22;64375;51.540;7.364;2023-11-19T14:18:37;17.20;99.90
4908;DHT22;64375;51.540;7.364;2023-11-19T14:21:07;17.20;99.90
4908;DHT22;64375;51.540;7.364;2023-11-19T14:23:39;17.30;99.90
4908;DHT22;64375;51.540;7.364;2023-11-19T14:26:07;17.40;99.90
4908;DHT22;64375;51.540;7.364;2023-11-19T14:28:42;17.40;99.90
4908;DHT22;64375;51.540;7.364;2023-11-19T14:31:13;17.20;99.90
4908;DHT22;64375;51.540;7.364;2023-11-19T14:33:41;17.20;99.90
4908;DHT22;64375;51.540;7.364;2023-11-19T14:36:17;17.20;99.90
4908;DHT22;64375;51.540;7.364;2023-11-19T14:38:46;17.30;99.90
4908;DHT22;64375;51.540;7.364;2023-11-19T14:41:14;17.40;99.90
4908;DHT22;64375;51.540;7.364;2023-11-19T14:43:42;17.30;99.90
4908;DHT22;64375;51.540;7.364;2023-11-19T14:46:10;17.40;99.90
4908;DHT22;64375;51.540;7.364;2023-11-19T14:48:38;17.40;99.90
4908;DHT22;64375;51.540;7.364;2023-11-19T14:51:09;17.40;99.90
4908;DHT22;64375;51.540;7.364;2023-11-19T14:53:37;17.30;99.90
4908;DHT22;64375;51.540;7.364;2023-11-19T14:56:10;17.30;99.90
4908;DHT22;64375;51.540;7.364;2023-11-19T14:58:39;17.20;99.90
4908;DHT22;64375;51.540;7.364;2023-11-19T15:01:11;17.30;99.90
4908;DHT22;64375;51.540;7.364;2023-11-19T15:03:39;17.30;99.90
4908;DHT22;64375;51.540;7.364;2023-11-19T15:06:10;17.40;99.90
4908;DHT22;64375;51.540;7.364;2023-11-19T15:08:45;17.10;99.90
4908;DHT22;64375;51.540;7.364;2023-11-19T15:11:17;17.00;99.90
4908;DHT22;64375;51.540;7.364;2023-11-19T15:13:45;17.20;99.90
4908;DHT22;64375;51.540;7.364;2023-11-19T15:16:16;16.80;99.90
4908;DHT22;64375;51.540;7.364;2023-11-19T15:18:54;16.70;99.90
4908;DHT22;64375;51.540;7.364;2023-11-19T15:21:26;16.90;99.90
4908;DHT22;64375;51.540;7.364;2023-11-19T15:23:55;17.20;99.90
4908;DHT22;64375;51.540;7.364;2023-11-19T15:26:25;17.40;99.90
4908;DHT22;64375;51.540;7.364;2023-11-19T15:28:53;17.50;99.90
4908;DHT22;64375;51.540;7.364;2023-11-19T15:31:24;17.50;99.90
4908;DHT22;64375;51.540;7.364;2023-11-19T15:33:55;17.60;99.90
4908;DHT22;64375;51.540;7.364;2023-11-19T15:36:25;17.60;99.90
4908;DHT22;64375;51.540;7.364;2023-11-19T15:39:01;17.70;99.90
4908;DHT22;64375;51.540;7.364;2023-11-19T15:41:33;17.70;99.90
4908;DHT22;64375;51.540;7.364;2023-11-19T15:44:02;17.70;99.90
4908;DHT22;64375;51.540;7.364;2023-11-19T15:46:31;17.70;99.90
4908;DHT22;64375;51.540;7.364;2023-11-19T15:49:02;17.70;99.90
4908;DHT22;64375;51.540;7.364;2023-11-19T15:51:30;17.70;99.90
4908;DHT22;64375;51.540;7.364;2023-11-19T15:53:58;17.70;99.90
4908;DHT22;64375;51.540;7.364;2023-11-19T15:56:26;17.70;99.90
4908;DHT22;64375;51.540;7.364;2023-11-19T15:58:56;17.70;99.90
4908;DHT22;64375;51.540;7.364;2023-11-19T16:01:29;17.60;99.90
4908;DHT22;64375;51.540;7.364;2023-11-19T16:04:03;17.60;99.90
4908;DHT22;64375;51.540;7.364;2023-11-19T16:06:31;17.70;99.90
4908;DHT22;64375;51.540;7.364;2023-11-19T16:09:01;17.60;99.90
4908;DHT22;64375;51.540;7.364;2023-11-19T16:11:33;17.60;99.90
4908;DHT22;64375;51.540;7.364;2023-11-19T16:14:19;17.60;99.90
4908;DHT22;64375;51.540;7.364;2023-11-19T16:16:49;17.60;99.90
4908;DHT22;64375;51.540;7.364;2023-11-19T16:19:18;17.60;99.90
4908;DHT22;64375;51.540;7.364;2023-11-19T16:21:47;17.60;99.90